sensor_id;sensor_type;location;lat;lon;timestamp;pressure;altitude;pressure_sealevel;temperature;humidity
30554;BME280;17335;50.720;7.452;2023-07-28T00:01:16;98488.06;;;16.33;100.00
30554;BME280;17335;50.720;7.452;2023-07-28T00:03:42;98483.25;;;16.22;100.00
30554;BME280;17335;50.720;7.452;2023-07-28T00:06:09;98484.09;;;16.22;100.00
30554;BME280;17335;50.720;7.452;2023-07-28T00:08:35;98483.28;;;16.28;100.00
30554;BME280;17335;50.720;7.452;2023-07-28T00:11:02;98478.88;;;16.21;100.00
30554;BME280;17335;50.720;7.452;2023-07-28T00:13:28;98476.38;;;16.19;100.00
30554;BME280;17335;50.720;7.452;2023-07-28T00:15:55;98484.72;;;16.24;100.00
30554;BME280;17335;50.720;7.452;2023-07-28T00:18:21;98483.88;;;16.24;100.00
30554;BME280;17335;50.720;7.452;2023-07-28T00:20:49;98480.97;;;16.25;100.00
30554;BME280;17335;50.720;7.452;2023-07-28T00:23:15;98479.09;;;16.26;100.00
30554;BME280;17335;50.720;7.452;2023-07-28T00:25:42;98480.38;;;16.30;100.00
30554;BME280;17335;50.720;7.452;2023-07-28T00:28:08;98482.00;;;16.24;100.00
30554;BME280;17335;50.720;7.452;2023-07-28T00:30:36;98485.16;;;16.28;100.00
30554;BME280;17335;50.720;7.452;2023-07-28T00:33:03;98484.91;;;16.23;100.00
30554;BME280;17335;50.720;7.452;2023-07-28T00:35:29;98479.31;;;16.24;100.00
30554;BME280;17335;50.720;7.452;2023-07-28T00:37:56;98476.19;;;16.27;100.00
30554;BME280;17335;50.720;7.452;2023-07-28T00:40:22;98472.47;;;16.35;100.00
30554;BME280;17335;50.720;7.452;2023-07-28T00:42:49;98473.69;;;16.26;100.00
30554;BME280;17335;50.720;7.452;2023-07-28T00:45:16;98476.22;;;16.34;100.00
30554;BME280;17335;50.720;7.452;2023-07-28T00:47:42;98473.91;;;16.31;100.00
30554;BME280;17335;50.720;7.452;2023-07-28T00:50:10;98475.38;;;16.27;100.00
30554;BME280;17335;50.720;7.452;2023-07-28T00:52:37;98476.41;;;16.33;100.00
30554;BME280;17335;50.720;7.452;2023-07-28T00:55:06;98474.53;;;16.33;100.00
30554;BME280;17335;50.720;7.452;2023-07-28T00:57:33;98477.25;;;16.33;100.00
30554;BME280;17335;50.720;7.452;2023-07-28T01:00:01;98485.81;;;16.30;100.00
30554;BME280;17335;50.720;7.452;2023-07-28T01:02:28;98475.16;;;16.28;100.00
30554;BME280;17335;50.720;7.452;2023-07-28T01:04:54;98474.53;;;16.33;100.00
30554;BME280;17335;50.720;7.452;2023-07-28T01:07:40;98466.84;;;16.30;100.00
30554;BME280;17335;50.720;7.452;2023-07-28T01:10:12;98474.31;;;16.28;100.00
30554;BME280;17335;50.720;7.452;2023-07-28T01:12:41;98472.03;;;16.25;100.00
30554;BME280;17335;50.720;7.452;2023-07-28T01:15:07;98473.69;;;16.26;100.00
30554;BME280;17335;50.720;7.452;2023-07-28T01:17:34;98471.59;;;16.28;100.00
30554;BME280;17335;50.720;7.452;2023-07-28T01:20:02;98470.38;;;16.30;100.00
30554;BME280;17335;50.720;7.452;2023-07-28T01:23:00;98466.81;;;16.23;100.00
30554;BME280;17335;50.720;7.452;2023-07-28T01:28:08;98465.00;;;16.37;100.00
30554;BME280;17335;50.720;7.452;2023-07-28T01:30:36;98473.50;;;16.34;100.00
30554;BME280;17335;50.720;7.452;2023-07-28T01:33:06;98463.31;;;16.36;100.00
30554;BME280;17335;50.720;7.452;2023-07-28T01:35:35;98453.53;;;16.35;100.00
30554;BME280;17335;50.720;7.452;2023-07-28T01:38:02;98464.56;;;16.34;100.00
30554;BME280;17335;50.720;7.452;2023-07-28T01:40:28;98462.28;;;16.37;100.00
30554;BME280;17335;50.720;7.452;2023-07-28T01:42:55;98459.53;;;16.30;100.00
30554;BME280;17335;50.720;7.452;2023-07-28T01:45:21;98461.03;;;16.40;100.00
30554;BME280;17335;50.720;7.452;2023-07-28T01:47:48;98467.28;;;16.34;100.00
30554;BME280;17335;50.720;7.452;2023-07-28T01:50:15;98464.75;;;16.32;100.00
30554;BME280;17335;50.720;7.452;2023-07-28T01:52:41;98457.88;;;16.29;100.00
30554;BME280;17335;50.720;7.452;2023-07-28T01:55:08;98463.72;;;16.33;100.00
30554;BME280;17335;50.720;7.452;2023-07-28T01:57:39;98458.75;;;16.37;100.00
30554;BME280;17335;50.720;7.452;2023-07-28T02:00:06;98452.09;;;16.46;100.00
30554;BME280;17335;50.720;7.452;2023-07-28T02:02:33;98452.66;;;16.35;100.00
30554;BME280;17335;50.720;7.452;2023-07-28T02:05:00;98454.97;;;16.38;100.00
30554;BME280;17335;50.720;7.452;2023-07-28T02:07:26;98456.25;;;16.42;100.00
30554;BME280;17335;50.720;7.452;2023-07-28T02:09:53;98456.25;;;16.42;100.00
30554;BME280;17335;50.720;7.452;2023-07-28T02:12:19;98443.75;;;16.47;100.00
30554;BME280;17335;50.720;7.452;2023-07-28T02:14:46;98446.88;;;16.44;100.00
30554;BME280;17335;50.720;7.452;2023-07-28T02:17:12;98447.06;;;16.43;100.00
30554;BME280;17335;50.720;7.452;2023-07-28T02:19:39;98454.19;;;16.44;100.00
30554;BME280;17335;50.720;7.452;2023-07-28T02:22:05;98446.25;;;16.42;100.00
30554;BME280;17335;50.720;7.452;2023-07-28T02:24:34;98460.41;;;16.44;100.00
30554;BME280;17335;50.720;7.452;2023-07-28T02:27:00;98451.69;;;16.49;100.00
30554;BME280;17335;50.720;7.452;2023-07-28T02:29:27;98452.50;;;16.43;100.00
30554;BME280;17335;50.720;7.452;2023-07-28T02:31:53;98458.50;;;16.38;100.00
30554;BME280;17335;50.720;7.452;2023-07-28T02:34:20;98456.25;;;16.42;100.00
30554;BME280;17335;50.720;7.452;2023-07-28T02:36:47;98456.25;;;16.42;100.00
30554;BME280;17335;50.720;7.452;2023-07-28T02:39:13;98464.38;;;16.42;100.00
30554;BME280;17335;50.720;7.452;2023-07-28T02:41:40;98456.66;;;16.39;100.00
30554;BME280;17335;50.720;7.452;2023-07-28T02:44:06;98456.84;;;16.37;100.00
30554;BME280;17335;50.720;7.452;2023-07-28T02:46:33;98465.44;;;16.47;100.00
30554;BME280;17335;50.720;7.452;2023-07-28T02:49:00;98465.44;;;16.47;100.00
30554;BME280;17335;50.720;7.452;2023-07-28T02:51:29;98464.59;;;16.40;100.00
30554;BME280;17335;50.720;7.452;2023-07-28T02:53:55;98475.00;;;16.50;100.00
30554;BME280;17335;50.720;7.452;2023-07-28T02:56:21;98477.50;;;16.52;100.00
30554;BME280;17335;50.720;7.452;2023-07-28T02:58:48;98480.00;;;16.46;100.00
30554;BME280;17335;50.720;7.452;2023-07-28T03:01:15;98485.81;;;16.43;100.00
30554;BME280;17335;50.720;7.452;2023-07-28T03:03:41;98488.75;;;16.42;100.00
30554;BME280;17335;50.720;7.452;2023-07-28T03:06:08;98486.06;;;16.42;100.00
30554;BME280;17335;50.720;7.452;2023-07-28T03:08:34;98487.09;;;16.47;100.00
30554;BME280;17335;50.720;7.452;2023-07-28T03:11:01;98486.69;;;16.44;100.00
30554;BME280;17335;50.720;7.452;2023-07-28T03:13:30;98481.25;;;16.44;100.00
30554;BME280;17335;50.720;7.452;2023-07-28T03:15:57;98488.75;;;16.42;100.00
30554;BME280;17335;50.720;7.452;2023-07-28T03:18:23;98488.13;;;16.46;100.00
30554;BME280;17335;50.720;7.452;2023-07-28T03:20:50;98478.34;;;16.45;100.00
30554;BME280;17335;50.720;7.452;2023-07-28T03:23:16;98482.28;;;16.43;100.00
30554;BME280;17335;50.720;7.452;2023-07-28T03:25:43;98485.22;;;16.48;100.00
30554;BME280;17335;50.720;7.452;2023-07-28T03:28:09;98482.09;;;16.44;100.00
30554;BME280;17335;50.720;7.452;2023-07-28T03:30:36;98486.47;;;16.45;100.00
30554;BME280;17335;50.720;7.452;2023-07-28T03:33:02;98476.66;;;16.44;100.00
30554;BME280;17335;50.720;7.452;2023-07-28T03:35:29;98475.44;;;16.47;100.00
30554;BME280;17335;50.720;7.452;2023-07-28T03:37:55;98485.66;;;16.52;100.00
30554;BME280;17335;50.720;7.452;2023-07-28T03:40:22;98478.75;;;16.42;100.00
30554;BME280;17335;50.720;7.452;2023-07-28T03:42:49;98484.63;;;16.53;100.00
30554;BME280;17335;50.720;7.452;2023-07-28T03:45:16;98481.91;;;16.53;100.00
30554;BME280;17335;50.720;7.452;2023-07-28T03:47:42;98481.72;;;16.54;100.00
30554;BME280;17335;50.720;7.452;2023-07-28T03:50:09;98488.78;;;16.62;100.00
30554;BME280;17335;50.720;7.452;2023-07-28T03:52:35;98482.75;;;16.60;100.00
30554;BME280;17335;50.720;7.452;2023-07-28T03:55:02;98477.31;;;16.53;100.00
30554;BME280;17335;50.720;7.452;2023-07-28T03:57:29;98480.44;;;16.57;100.00
30554;BME280;17335;50.720;7.452;2023-07-28T03:59:56;98472.94;;;16.59;100.00
30554;BME280;17335;50.720;7.452;2023-07-28T04:02:22;98477.53;;;16.58;100.00
30554;BME280;17335;50.720;7.452;2023-07-28T04:04:56;98481.94;;;16.59;100.00
30554;BME280;17335;50.720;7.452;2023-07-28T04:07:23;98482.56;;;16.61;100.00
30554;BME280;17335;50.720;7.452;2023-07-28T04:09:50;98487.56;;;16.64;100.00
30554;BME280;17335;50.720;7.452;2023-07-28T04:12:17;98491.50;;;16.62;100.00
30554;BME280;17335;50.720;7.452;2023-07-28T04:14:43;98486.72;;;16.57;100.00
30554;BME280;17335;50.720;7.452;2023-07-28T04:17:10;98495.91;;;16.63;100.00
30554;BME280;17335;50.720;7.452;2023-07-28T04:19:38;98484.22;;;16.62;100.00
30554;BME280;17335;50.720;7.452;2023-07-28T04:22:04;98490.06;;;16.66;100.00
30554;BME280;17335;50.720;7.452;2023-07-28T04:24:31;98502.97;;;16.64;100.00
30554;BME280;17335;50.720;7.452;2023-07-28T04:26:58;98496.75;;;16.70;100.00
30554;BME280;17335;50.720;7.452;2023-07-28T04:29:24;98494.84;;;16.64;100.00
30554;BME280;17335;50.720;7.452;2023-07-28T04:31:53;98498.44;;;16.71;100.00
30554;BME280;17335;50.720;7.452;2023-07-28T04:34:20;98503.41;;;16.74;100.00
30554;BME280;17335;50.720;7.452;2023-07-28T04:36:47;98502.16;;;16.70;100.00
30554;BME280;17335;50.720;7.452;2023-07-28T04:39:14;98498.84;;;16.75;100.00
30554;BME280;17335;50.720;7.452;2023-07-28T04:41:40;98496.31;;;16.66;100.00
30554;BME280;17335;50.720;7.452;2023-07-28T04:44:07;98509.88;;;16.73;100.00
30554;BME280;17335;50.720;7.452;2023-07-28T04:46:33;98509.25;;;16.71;100.00
30554;BME280;17335;50.720;7.452;2023-07-28T04:49:00;98505.06;;;16.68;100.00
30554;BME280;17335;50.720;7.452;2023-07-28T04:51:28;98508.81;;;16.74;100.00
30554;BME280;17335;50.720;7.452;2023-07-28T04:53:55;98518.44;;;16.77;100.00
30554;BME280;17335;50.720;7.452;2023-07-28T04:56:21;98518.25;;;16.78;100.00
30554;BME280;17335;50.720;7.452;2023-07-28T04:58:48;98522.47;;;16.94;100.00
30554;BME280;17335;50.720;7.452;2023-07-28T05:01:14;98517.25;;;16.93;100.00
30554;BME280;17335;50.720;7.452;2023-07-28T05:03:41;98509.75;;;16.95;100.00
30554;BME280;17335;50.720;7.452;2023-07-28T05:06:07;98509.53;;;17.03;100.00
30554;BME280;17335;50.720;7.452;2023-07-28T05:08:34;98517.25;;;16.99;100.00
30554;BME280;17335;50.720;7.452;2023-07-28T05:11:02;98517.69;;;17.03;100.00
30554;BME280;17335;50.720;7.452;2023-07-28T05:13:29;98518.75;;;17.02;100.00
30554;BME280;17335;50.720;7.452;2023-07-28T05:15:55;98516.88;;;17.16;100.00
30554;BME280;17335;50.720;7.452;2023-07-28T05:18:22;98516.25;;;17.07;100.00
30554;BME280;17335;50.720;7.452;2023-07-28T05:20:48;98519.38;;;17.11;100.00
30554;BME280;17335;50.720;7.452;2023-07-28T05:23:15;98522.28;;;17.09;100.00
30554;BME280;17335;50.720;7.452;2023-07-28T05:25:41;98532.69;;;17.12;100.00
30554;BME280;17335;50.720;7.452;2023-07-28T05:28:08;98526.03;;;17.15;100.00
30554;BME280;17335;50.720;7.452;2023-07-28T05:30:34;98527.28;;;17.19;100.00
30554;BME280;17335;50.720;7.452;2023-07-28T05:33:01;98528.75;;;17.28;100.00
30554;BME280;17335;50.720;7.452;2023-07-28T05:35:27;98531.06;;;17.24;100.00
30554;BME280;17335;50.720;7.452;2023-07-28T05:37:54;98527.69;;;17.29;100.00
30554;BME280;17335;50.720;7.452;2023-07-28T05:40:21;98526.88;;;17.29;100.00
30554;BME280;17335;50.720;7.452;2023-07-28T05:42:47;98530.63;;;17.28;100.00
30554;BME280;17335;50.720;7.452;2023-07-28T05:45:14;98532.31;;;17.29;100.00
30554;BME280;17335;50.720;7.452;2023-07-28T05:47:41;98538.97;;;17.33;100.00
30554;BME280;17335;50.720;7.452;2023-07-28T05:50:08;98543.56;;;17.39;100.00
30554;BME280;17335;50.720;7.452;2023-07-28T05:52:34;98526.06;;;17.35;100.00
30554;BME280;17335;50.720;7.452;2023-07-28T05:55:01;98532.31;;;17.35;100.00
30554;BME280;17335;50.720;7.452;2023-07-28T05:57:27;98538.56;;;17.42;100.00
30554;BME280;17335;50.720;7.452;2023-07-28T05:59:54;98536.91;;;17.35;100.00
30554;BME280;17335;50.720;7.452;2023-07-28T06:02:20;98534.41;;;17.40;100.00
30554;BME280;17335;50.720;7.452;2023-07-28T06:04:47;98539.19;;;17.44;100.00
30554;BME280;17335;50.720;7.452;2023-07-28T06:07:13;98546.91;;;17.54;100.00
30554;BME280;17335;50.720;7.452;2023-07-28T06:09:40;98544.00;;;17.62;100.00
30554;BME280;17335;50.720;7.452;2023-07-28T06:12:06;98539.19;;;17.58;100.00
30554;BME280;17335;50.720;7.452;2023-07-28T06:14:33;98541.69;;;17.66;100.00
30554;BME280;17335;50.720;7.452;2023-07-28T06:17:00;98537.69;;;17.69;100.00
30554;BME280;17335;50.720;7.452;2023-07-28T06:19:26;98551.47;;;17.74;100.00
30554;BME280;17335;50.720;7.452;2023-07-28T06:21:53;98559.81;;;17.79;100.00
30554;BME280;17335;50.720;7.452;2023-07-28T06:24:19;98548.56;;;17.82;100.00
30554;BME280;17335;50.720;7.452;2023-07-28T06:26:46;98554.19;;;17.80;100.00
30554;BME280;17335;50.720;7.452;2023-07-28T06:29:13;98554.59;;;17.84;100.00
30554;BME280;17335;50.720;7.452;2023-07-28T06:31:39;98558.00;;;17.86;100.00
30554;BME280;17335;50.720;7.452;2023-07-28T06:34:06;98564.03;;;17.95;100.00
30554;BME280;17335;50.720;7.452;2023-07-28T06:36:33;98555.25;;;17.93;100.00
30554;BME280;17335;50.720;7.452;2023-07-28T06:38:59;98554.41;;;17.92;100.00
30554;BME280;17335;50.720;7.452;2023-07-28T06:41:26;98555.22;;;18.06;100.00
30554;BME280;17335;50.720;7.452;2023-07-28T06:43:52;98555.44;;;18.05;100.00
30554;BME280;17335;50.720;7.452;2023-07-28T06:46:19;98567.09;;;18.18;100.00
30554;BME280;17335;50.720;7.452;2023-07-28T06:48:46;98564.81;;;18.15;100.00
30554;BME280;17335;50.720;7.452;2023-07-28T06:51:13;98569.63;;;18.07;100.00
30554;BME280;17335;50.720;7.452;2023-07-28T06:53:39;98568.38;;;18.09;100.00
30554;BME280;17335;50.720;7.452;2023-07-28T06:56:06;98569.19;;;18.16;100.00
30554;BME280;17335;50.720;7.452;2023-07-28T06:58:32;98568.56;;;18.21;100.00
30554;BME280;17335;50.720;7.452;2023-07-28T07:00:59;98566.66;;;18.22;100.00
30554;BME280;17335;50.720;7.452;2023-07-28T07:03:25;98568.34;;;18.23;100.00
30554;BME280;17335;50.720;7.452;2023-07-28T07:05:52;98580.25;;;18.22;100.00
30554;BME280;17335;50.720;7.452;2023-07-28T07:08:18;98577.13;;;18.25;100.00
30554;BME280;17335;50.720;7.452;2023-07-28T07:10:52;98574.00;;;18.21;100.00
30554;BME280;17335;50.720;7.452;2023-07-28T07:13:18;98574.63;;;18.23;100.00
30554;BME280;17335;50.720;7.452;2023-07-28T07:15:47;98577.53;;;18.22;100.00
30554;BME280;17335;50.720;7.452;2023-07-28T07:18:13;98584.84;;;18.21;100.00
30554;BME280;17335;50.720;7.452;2023-07-28T07:20:40;98578.56;;;18.27;100.00
30554;BME280;17335;50.720;7.452;2023-07-28T07:23:07;98591.31;;;18.33;100.00
30554;BME280;17335;50.720;7.452;2023-07-28T07:25:34;98587.69;;;18.46;100.00
30554;BME280;17335;50.720;7.452;2023-07-28T07:28:00;98588.31;;;18.55;100.00
30554;BME280;17335;50.720;7.452;2023-07-28T07:30:27;98592.44;;;18.64;100.00
30554;BME280;17335;50.720;7.452;2023-07-28T07:32:53;98597.63;;;18.79;100.00
30554;BME280;17335;50.720;7.452;2023-07-28T07:35:20;98599.88;;;18.89;100.00
30554;BME280;17335;50.720;7.452;2023-07-28T07:37:46;98606.72;;;19.05;100.00
30554;BME280;17335;50.720;7.452;2023-07-28T07:40:13;98599.75;;;19.16;100.00
30554;BME280;17335;50.720;7.452;2023-07-28T07:42:47;98604.31;;;19.22;100.00
30554;BME280;17335;50.720;7.452;2023-07-28T07:45:15;98596.78;;;19.24;100.00
30554;BME280;17335;50.720;7.452;2023-07-28T07:47:42;98604.47;;;19.27;100.00
30554;BME280;17335;50.720;7.452;2023-07-28T07:50:10;98603.22;;;19.29;100.00
30554;BME280;17335;50.720;7.452;2023-07-28T07:52:38;98598.16;;;19.33;100.00
30554;BME280;17335;50.720;7.452;2023-07-28T07:55:09;98609.00;;;19.40;100.00
30554;BME280;17335;50.720;7.452;2023-07-28T07:57:38;98610.22;;;19.44;100.00
30554;BME280;17335;50.720;7.452;2023-07-28T08:00:05;98605.00;;;19.42;100.00
30554;BME280;17335;50.720;7.452;2023-07-28T08:02:32;98607.28;;;19.45;100.00
30554;BME280;17335;50.720;7.452;2023-07-28T08:04:58;98613.38;;;19.41;100.00
30554;BME280;17335;50.720;7.452;2023-07-28T08:07:25;98614.47;;;19.40;100.00
30554;BME280;17335;50.720;7.452;2023-07-28T08:09:52;98621.16;;;19.37;100.00
30554;BME280;17335;50.720;7.452;2023-07-28T08:12:18;98613.66;;;19.33;100.00
30554;BME280;17335;50.720;7.452;2023-07-28T08:14:45;98617.88;;;19.28;100.00
30554;BME280;17335;50.720;7.452;2023-07-28T08:17:15;98620.00;;;19.20;100.00
30554;BME280;17335;50.720;7.452;2023-07-28T08:19:41;98626.75;;;19.17;100.00
30554;BME280;17335;50.720;7.452;2023-07-28T08:22:08;98624.94;;;19.36;100.00
30554;BME280;17335;50.720;7.452;2023-07-28T08:24:35;98634.50;;;19.45;100.00
30554;BME280;17335;50.720;7.452;2023-07-28T08:27:02;98642.38;;;19.60;100.00
30554;BME280;17335;50.720;7.452;2023-07-28T08:29:28;98628.31;;;19.63;100.00
30554;BME280;17335;50.720;7.452;2023-07-28T08:31:55;98624.47;;;19.71;100.00
30554;BME280;17335;50.720;7.452;2023-07-28T08:34:23;98633.88;;;19.75;100.00
30554;BME280;17335;50.720;7.452;2023-07-28T08:36:50;98627.63;;;19.75;100.00
30554;BME280;17335;50.720;7.452;2023-07-28T08:39:17;98626.75;;;19.81;100.00
30554;BME280;17335;50.720;7.452;2023-07-28T08:41:44;98629.63;;;19.86;100.00
30554;BME280;17335;50.720;7.452;2023-07-28T08:44:11;98632.91;;;19.95;100.00
30554;BME280;17335;50.720;7.452;2023-07-28T08:46:38;98629.91;;;20.03;100.00
30554;BME280;17335;50.720;7.452;2023-07-28T08:49:04;98629.00;;;20.09;100.00
30554;BME280;17335;50.720;7.452;2023-07-28T08:51:31;98629.16;;;20.14;100.00
30554;BME280;17335;50.720;7.452;2023-07-28T08:53:58;98632.66;;;20.21;100.00
30554;BME280;17335;50.720;7.452;2023-07-28T08:56:25;98628.38;;;20.32;100.00
30554;BME280;17335;50.720;7.452;2023-07-28T08:59:01;98622.19;;;20.62;100.00
30554;BME280;17335;50.720;7.452;2023-07-28T09:01:28;98611.56;;;20.91;100.00
30554;BME280;17335;50.720;7.452;2023-07-28T09:03:54;98610.22;;;21.12;100.00
30554;BME280;17335;50.720;7.452;2023-07-28T09:06:28;98607.34;;;21.37;100.00
30554;BME280;17335;50.720;7.452;2023-07-28T09:08:57;98603.06;;;21.71;100.00
30554;BME280;17335;50.720;7.452;2023-07-28T09:11:24;98596.19;;;21.92;100.00
30554;BME280;17335;50.720;7.452;2023-07-28T09:13:54;98589.50;;;22.00;100.00
30554;BME280;17335;50.720;7.452;2023-07-28T09:16:22;98587.63;;;22.13;100.00
30554;BME280;17335;50.720;7.452;2023-07-28T09:18:51;98587.25;;;22.33;100.00
30554;BME280;17335;50.720;7.452;2023-07-28T09:21:29;98582.28;;;22.29;100.00
30554;BME280;17335;50.720;7.452;2023-07-28T09:24:04;98570.03;;;22.32;100.00
30554;BME280;17335;50.720;7.452;2023-07-28T09:29:15;98586.19;;;21.98;100.00
30554;BME280;17335;50.720;7.452;2023-07-28T09:31:43;98578.84;;;21.87;100.00
30554;BME280;17335;50.720;7.452;2023-07-28T09:34:10;98584.38;;;21.57;100.00
30554;BME280;17335;50.720;7.452;2023-07-28T09:36:37;98596.44;;;21.37;100.00
30554;BME280;17335;50.720;7.452;2023-07-28T09:39:07;98601.25;;;21.23;100.00
30554;BME280;17335;50.720;7.452;2023-07-28T09:41:38;98611.63;;;21.03;100.00
30554;BME280;17335;50.720;7.452;2023-07-28T09:44:05;98608.47;;;20.87;100.00
30554;BME280;17335;50.720;7.452;2023-07-28T09:46:33;98609.91;;;20.71;100.00
30554;BME280;17335;50.720;7.452;2023-07-28T09:49:05;98618.81;;;20.60;100.00
30554;BME280;17335;50.720;7.452;2023-07-28T09:51:37;98624.03;;;20.43;100.00
30554;BME280;17335;50.720;7.452;2023-07-28T09:54:23;98626.47;;;20.51;100.00
30554;BME280;17335;50.720;7.452;2023-07-28T09:56:57;98621.72;;;20.65;100.00
30554;BME280;17335;50.720;7.452;2023-07-28T09:59:28;98625.22;;;20.72;100.00
30554;BME280;17335;50.720;7.452;2023-07-28T10:01:58;98624.69;;;20.82;100.00
30554;BME280;17335;50.720;7.452;2023-07-28T10:04:24;98622.25;;;20.92;100.00
30554;BME280;17335;50.720;7.452;2023-07-28T10:06:53;98624.97;;;20.92;100.00
30554;BME280;17335;50.720;7.452;2023-07-28T10:09:26;98630.66;;;20.91;100.00
30554;BME280;17335;50.720;7.452;2023-07-28T10:11:54;98628.97;;;20.90;100.00
30554;BME280;17335;50.720;7.452;2023-07-28T10:14:34;98631.00;;;20.57;100.00
30554;BME280;17335;50.720;7.452;2023-07-28T10:19:28;98637.09;;;20.78;100.00
30554;BME280;17335;50.720;7.452;2023-07-28T10:22:02;98634.97;;;20.80;100.00
30554;BME280;17335;50.720;7.452;2023-07-28T10:24:52;98633.91;;;21.00;100.00
30554;BME280;17335;50.720;7.452;2023-07-28T10:29:59;98645.47;;;21.13;100.00
30554;BME280;17335;50.720;7.452;2023-07-28T10:32:26;98634.66;;;20.88;100.00
30554;BME280;17335;50.720;7.452;2023-07-28T10:35:05;98635.38;;;20.65;100.00
30554;BME280;17335;50.720;7.452;2023-07-28T10:37:33;98649.00;;;20.65;100.00
30554;BME280;17335;50.720;7.452;2023-07-28T10:40:34;98644.38;;;20.66;100.00
30554;BME280;17335;50.720;7.452;2023-07-28T10:43:05;98655.72;;;21.00;100.00
30554;BME280;17335;50.720;7.452;2023-07-28T10:45:32;98650.47;;;21.47;100.00
30554;BME280;17335;50.720;7.452;2023-07-28T10:47:59;98643.81;;;21.97;100.00
30554;BME280;17335;50.720;7.452;2023-07-28T10:50:28;98624.22;;;22.23;100.00
30554;BME280;17335;50.720;7.452;2023-07-28T10:52:55;98623.25;;;22.53;100.00
30554;BME280;17335;50.720;7.452;2023-07-28T10:55:24;98609.31;;;22.66;100.00
30554;BME280;17335;50.720;7.452;2023-07-28T10:57:53;98613.41;;;22.93;100.00
30554;BME280;17335;50.720;7.452;2023-07-28T11:00:22;98603.47;;;23.03;100.00
30554;BME280;17335;50.720;7.452;2023-07-28T11:02:50;98604.16;;;23.23;100.00
30554;BME280;17335;50.720;7.452;2023-07-28T11:05:22;98589.00;;;23.32;100.00
30554;BME280;17335;50.720;7.452;2023-07-28T11:07:50;98600.34;;;23.24;100.00
30554;BME280;17335;50.720;7.452;2023-07-28T11:10:17;98597.91;;;23.10;100.00
30554;BME280;17335;50.720;7.452;2023-07-28T11:12:46;98601.91;;;22.79;100.00
30554;BME280;17335;50.720;7.452;2023-07-28T11:15:14;98607.50;;;22.84;100.00
30554;BME280;17335;50.720;7.452;2023-07-28T11:17:45;98611.28;;;22.83;100.00
30554;BME280;17335;50.720;7.452;2023-07-28T11:20:26;98612.28;;;22.65;100.00
30554;BME280;17335;50.720;7.452;2023-07-28T11:22:57;98611.59;;;22.70;100.00
30554;BME280;17335;50.720;7.452;2023-07-28T11:25:25;98611.09;;;22.73;100.00
30554;BME280;17335;50.720;7.452;2023-07-28T11:27:53;98612.25;;;22.89;100.00
30554;BME280;17335;50.720;7.452;2023-07-28T11:30:20;98606.44;;;22.85;100.00
30554;BME280;17335;50.720;7.452;2023-07-28T11:32:49;98607.19;;;22.69;100.00
30554;BME280;17335;50.720;7.452;2023-07-28T11:35:18;98610.72;;;22.69;100.00
30554;BME280;17335;50.720;7.452;2023-07-28T11:37:46;98611.56;;;22.81;100.00
30554;BME280;17335;50.720;7.452;2023-07-28T11:40:15;98606.28;;;22.92;100.00
30554;BME280;17335;50.720;7.452;2023-07-28T11:43:00;98611.28;;;23.24;100.00
30554;BME280;17335;50.720;7.452;2023-07-28T11:45:27;98621.03;;;23.31;100.00
30554;BME280;17335;50.720;7.452;2023-07-28T11:47:59;98605.91;;;23.29;100.00
30554;BME280;17335;50.720;7.452;2023-07-28T11:50:30;98589.81;;;23.32;100.00
30554;BME280;17335;50.720;7.452;2023-07-28T11:52:57;98594.34;;;23.55;100.00
30554;BME280;17335;50.720;7.452;2023-07-28T11:55:24;98582.13;;;23.63;100.00
30554;BME280;17335;50.720;7.452;2023-07-28T11:57:52;98593.09;;;23.63;100.00
30554;BME280;17335;50.720;7.452;2023-07-28T12:00:19;98587.84;;;23.62;100.00
30554;BME280;17335;50.720;7.452;2023-07-28T12:03:00;98589.84;;;23.66;100.00
30554;BME280;17335;50.720;7.452;2023-07-28T12:05:27;98597.91;;;23.73;100.00
30554;BME280;17335;50.720;7.452;2023-07-28T12:07:55;98590.38;;;23.97;100.00
30554;BME280;17335;50.720;7.452;2023-07-28T12:10:21;98582.44;;;24.18;100.00
30554;BME280;17335;50.720;7.452;2023-07-28T12:12:51;98577.78;;;24.18;100.00
30554;BME280;17335;50.720;7.452;2023-07-28T12:15:25;98578.13;;;24.44;100.00
30554;BME280;17335;50.720;7.452;2023-07-28T12:18:20;98569.16;;;24.48;100.00
30554;BME280;17335;50.720;7.452;2023-07-28T12:20:51;98574.38;;;24.28;100.00
30554;BME280;17335;50.720;7.452;2023-07-28T12:23:22;98579.69;;;24.34;100.00
30554;BME280;17335;50.720;7.452;2023-07-28T12:25:52;98581.63;;;24.39;100.00
30554;BME280;17335;50.720;7.452;2023-07-28T12:28:22;98568.03;;;24.27;100.00
30554;BME280;17335;50.720;7.452;2023-07-28T12:30:49;98563.00;;;24.19;100.00
30554;BME280;17335;50.720;7.452;2023-07-28T12:33:17;98559.88;;;24.10;100.00
30554;BME280;17335;50.720;7.452;2023-07-28T12:35:48;98565.06;;;24.12;100.00
30554;BME280;17335;50.720;7.452;2023-07-28T12:38:17;98562.28;;;24.07;100.00
30554;BME280;17335;50.720;7.452;2023-07-28T12:40:46;98568.78;;;24.01;100.00
30554;BME280;17335;50.720;7.452;2023-07-28T12:43:16;98575.25;;;23.94;100.00
30554;BME280;17335;50.720;7.452;2023-07-28T12:45:45;98583.63;;;23.71;100.00
30554;BME280;17335;50.720;7.452;2023-07-28T12:48:16;98589.72;;;23.27;100.00
30554;BME280;17335;50.720;7.452;2023-07-28T12:50:45;98601.47;;;22.70;100.00
30554;BME280;17335;50.720;7.452;2023-07-28T12:53:13;98616.75;;;22.42;100.00
30554;BME280;17335;50.720;7.452;2023-07-28T12:55:44;98618.28;;;21.91;100.00
30554;BME280;17335;50.720;7.452;2023-07-28T12:58:14;98620.69;;;21.57;100.00
30554;BME280;17335;50.720;7.452;2023-07-28T13:00:44;98632.41;;;21.46;100.00
30554;BME280;17335;50.720;7.452;2023-07-28T13:03:13;98636.13;;;21.51;100.00
30554;BME280;17335;50.720;7.452;2023-07-28T13:05:40;98642.59;;;21.81;100.00